createdAt,value
2022-12-25T00:01:22.714Z,6.40
2022-12-25T00:03:50.161Z,6.30
2022-12-25T00:06:17.384Z,6.40
2022-12-25T00:08:44.339Z,6.40
2022-12-25T00:11:14.338Z,6.30
2022-12-25T00:13:41.708Z,6.40
2022-12-25T00:16:10.962Z,6.40
2022-12-25T00:18:37.647Z,6.40
2022-12-25T00:21:06.364Z,6.40
2022-12-25T00:23:34.807Z,6.30
2022-12-25T00:26:14.959Z,6.30
2022-12-25T00:28:41.954Z,6.20
2022-12-25T00:31:14.507Z,6.20
2022-12-25T00:33:43.142Z,6.20
2022-12-25T00:36:10.799Z,6.20
2022-12-25T00:38:39.781Z,6.20
2022-12-25T00:41:11.338Z,6.20
2022-12-25T00:43:38.558Z,6.20
2022-12-25T00:46:07.082Z,6.20
2022-12-25T00:48:34.287Z,6.20
2022-12-25T00:51:04.118Z,6.20
2022-12-25T00:53:31.848Z,6.30
2022-12-25T00:56:00.780Z,6.20
2022-12-25T00:58:30.703Z,6.20
2022-12-25T01:00:57.936Z,6.20
2022-12-25T01:03:25.474Z,6.20
2022-12-25T01:06:01.149Z,6.30
2022-12-25T01:08:30.971Z,6.30
2022-12-25T01:11:00.208Z,6.30
2022-12-25T01:13:27.718Z,6.30
2022-12-25T01:15:54.795Z,6.30
2022-12-25T01:18:24.203Z,6.30
2022-12-25T01:20:51.211Z,6.30
2022-12-25T01:23:17.861Z,6.30
2022-12-25T01:25:44.533Z,6.30
2022-12-25T01:28:11.216Z,6.40
2022-12-25T01:30:37.886Z,6.30
2022-12-25T01:33:04.790Z,6.30
2022-12-25T01:35:31.425Z,6.30
2022-12-25T01:37:58.079Z,6.30
2022-12-25T01:40:24.895Z,6.30
2022-12-25T01:42:51.709Z,6.20
2022-12-25T01:45:30.650Z,6.20
2022-12-25T01:47:57.928Z,6.20
2022-12-25T01:50:24.939Z,6.20
2022-12-25T01:52:52.515Z,6.20
2022-12-25T01:55:19.493Z,6.30
2022-12-25T01:57:46.493Z,6.30
2022-12-25T02:00:14.138Z,6.30
2022-12-25T02:02:42.394Z,6.30
2022-12-25T02:05:27.571Z,6.30
2022-12-25T02:07:55.447Z,6.30
2022-12-25T02:10:22.353Z,6.30
2022-12-25T02:12:49.365Z,6.30
2022-12-25T02:15:19.649Z,6.30
2022-12-25T02:18:10.026Z,6.30
2022-12-25T02:20:59.675Z,6.30
2022-12-25T02:23:49.753Z,6.40
2022-12-25T02:27:02.291Z,6.40
2022-12-25T02:29:42.837Z,6.40
2022-12-25T02:32:12.592Z,6.40
2022-12-25T02:34:49.271Z,6.40
2022-12-25T02:37:40.151Z,6.40
2022-12-25T02:40:19.391Z,6.40
2022-12-25T02:43:29.882Z,6.40
2022-12-25T02:46:16.561Z,6.40
2022-12-25T02:49:07.567Z,6.50
2022-12-25T02:51:56.551Z,6.50
2022-12-25T02:54:49.150Z,6.50
2022-12-25T02:57:38.686Z,6.50
2022-12-25T03:00:26.508Z,6.50
2022-12-25T03:03:13.165Z,6.60
2022-12-25T03:06:00.638Z,6.60
2022-12-25T03:08:41.221Z,6.60
2022-12-25T03:11:29.037Z,6.60
2022-12-25T03:14:21.720Z,6.60
2022-12-25T03:16:52.875Z,6.60
2022-12-25T03:19:56.514Z,6.50
2022-12-25T03:22:46.832Z,6.50
2022-12-25T03:25:33.045Z,6.50
2022-12-25T03:28:00.578Z,6.60
2022-12-25T03:31:14.133Z,6.60
2022-12-25T03:34:06.791Z,6.60
2022-12-25T03:37:09.873Z,6.60
2022-12-25T03:39:59.353Z,6.60
2022-12-25T03:42:55.621Z,6.60
2022-12-25T03:46:04.317Z,6.50
2022-12-25T03:48:54.285Z,6.50
2022-12-25T03:51:44.887Z,6.50
2022-12-25T03:54:32.900Z,6.50
2022-12-25T03:57:18.401Z,6.50
2022-12-25T04:00:03.747Z,6.50
2022-12-25T04:02:49.613Z,6.50
2022-12-25T04:05:34.843Z,6.50
2022-12-25T04:08:20.420Z,6.40
2022-12-25T04:11:05.966Z,6.40
2022-12-25T04:13:51.377Z,6.40
2022-12-25T04:16:36.876Z,6.50
2022-12-25T04:19:22.319Z,6.40
2022-12-25T04:22:07.636Z,6.40
2022-12-25T04:24:53.216Z,6.40
2022-12-25T04:27:38.511Z,6.40
2022-12-25T04:30:24.308Z,6.40
2022-12-25T04:33:09.669Z,6.40
2022-12-25T04:35:54.828Z,6.40
2022-12-25T04:38:22.255Z,6.40
2022-12-25T04:40:48.932Z,6.40
2022-12-25T04:43:15.583Z,6.50
2022-12-25T04:45:42.220Z,6.50
2022-12-25T04:48:08.888Z,6.50
2022-12-25T04:50:35.547Z,6.50
2022-12-25T04:53:02.193Z,6.50
2022-12-25T04:55:28.852Z,6.50
2022-12-25T04:57:55.508Z,6.50
2022-12-25T05:00:22.177Z,6.50
2022-12-25T05:02:48.947Z,6.50
2022-12-25T05:05:15.743Z,6.50
2022-12-25T05:07:42.407Z,6.50
2022-12-25T05:10:09.326Z,6.50
2022-12-25T05:12:35.929Z,6.50
2022-12-25T05:15:02.625Z,6.50
2022-12-25T05:17:29.243Z,6.50
2022-12-25T05:19:55.961Z,6.50
2022-12-25T05:22:22.601Z,6.50
2022-12-25T05:24:49.218Z,6.50
2022-12-25T05:27:16.164Z,6.50
2022-12-25T05:29:42.840Z,6.50
2022-12-25T05:32:09.567Z,6.50
2022-12-25T05:34:36.242Z,6.50
2022-12-25T05:37:02.884Z,6.60
2022-12-25T05:39:29.542Z,6.50
2022-12-25T05:41:56.182Z,6.50
2022-12-25T05:44:23.038Z,6.50
2022-12-25T05:46:49.759Z,6.50
2022-12-25T05:49:16.639Z,6.50
2022-12-25T05:51:43.304Z,6.50
2022-12-25T05:54:09.964Z,6.50
2022-12-25T05:56:37.688Z,6.50
2022-12-25T05:59:04.344Z,6.40
2022-12-25T06:01:31.088Z,6.40
2022-12-25T06:03:58.080Z,6.40
2022-12-25T06:06:25.303Z,6.50
2022-12-25T06:08:55.173Z,6.50
2022-12-25T06:11:22.103Z,6.50
2022-12-25T06:13:52.439Z,6.50
2022-12-25T06:16:19.724Z,6.40
2022-12-25T06:18:49.124Z,6.40
2022-12-25T06:21:16.314Z,6.40
2022-12-25T06:23:43.349Z,6.40
2022-12-25T06:26:13.382Z,6.40
2022-12-25T06:28:40.186Z,6.40
2022-12-25T06:31:20.893Z,6.30
2022-12-25T06:33:47.917Z,6.40
2022-12-25T06:36:23.557Z,6.40
2022-12-25T06:38:50.702Z,6.40
2022-12-25T06:41:20.425Z,6.40
2022-12-25T06:43:55.936Z,6.40
2022-12-25T06:46:24.521Z,6.40
2022-12-25T06:48:51.595Z,6.40
2022-12-25T06:51:26.451Z,6.40
2022-12-25T06:53:55.117Z,6.50
2022-12-25T06:56:28.515Z,6.50
2022-12-25T06:59:01.144Z,6.50
2022-12-25T07:01:29.474Z,6.50
2022-12-25T07:03:59.978Z,6.50
2022-12-25T07:06:26.631Z,6.50
2022-12-25T07:08:53.546Z,6.50
2022-12-25T07:11:20.947Z,6.50
2022-12-25T07:13:47.672Z,6.50
2022-12-25T07:16:14.960Z,6.50
2022-12-25T07:18:42.281Z,6.50
2022-12-25T07:21:17.840Z,6.50
2022-12-25T07:23:45.768Z,6.50
2022-12-25T07:26:13.433Z,6.50
2022-12-25T07:28:40.420Z,6.50
2022-12-25T07:31:11.157Z,6.50
2022-12-25T07:33:38.005Z,6.50
2022-12-25T07:36:05.537Z,6.50
2022-12-25T07:38:33.123Z,6.50
2022-12-25T07:40:59.995Z,6.60
2022-12-25T07:43:27.277Z,6.60
2022-12-25T07:45:55.808Z,6.60
2022-12-25T07:48:22.684Z,6.70
2022-12-25T07:50:49.356Z,6.70
2022-12-25T07:53:15.991Z,6.80
2022-12-25T07:55:42.629Z,6.80
2022-12-25T07:58:09.292Z,6.90
2022-12-25T08:00:36.026Z,6.90
2022-12-25T08:03:02.972Z,7.00
2022-12-25T08:05:29.709Z,7.10
2022-12-25T08:07:57.952Z,7.20
2022-12-25T08:10:25.108Z,7.30
2022-12-25T08:12:52.068Z,7.40
2022-12-25T08:15:18.753Z,7.60
2022-12-25T08:17:45.446Z,7.60
2022-12-25T08:20:12.624Z,7.70
2022-12-25T08:22:39.307Z,7.80
2022-12-25T08:25:06.191Z,7.80
2022-12-25T08:27:34.076Z,7.90
2022-12-25T08:30:00.772Z,7.90
2022-12-25T08:32:27.665Z,8.00
2022-12-25T08:34:54.278Z,8.00
2022-12-25T08:37:20.973Z,8.00
2022-12-25T08:39:47.593Z,8.00
2022-12-25T08:42:15.235Z,8.00
2022-12-25T08:44:42.083Z,8.00
2022-12-25T08:47:08.788Z,7.90
2022-12-25T08:49:35.459Z,7.90
2022-12-25T08:52:02.433Z,7.90
2022-12-25T08:54:30.933Z,7.90
2022-12-25T08:57:02.695Z,7.90
2022-12-25T08:59:30.064Z,7.90
2022-12-25T09:01:56.853Z,8.00
2022-12-25T09:04:23.592Z,8.10
2022-12-25T09:06:51.137Z,8.20
2022-12-25T09:09:17.839Z,8.30
2022-12-25T09:11:44.524Z,8.40
2022-12-25T09:14:13.556Z,8.50
2022-12-25T09:16:40.328Z,8.60
2022-12-25T09:19:07.826Z,8.70
2022-12-25T09:21:36.754Z,8.70
2022-12-25T09:24:04.768Z,8.80
2022-12-25T09:26:31.436Z,9.00
2022-12-25T09:28:58.191Z,9.20
2022-12-25T09:31:25.017Z,9.40
2022-12-25T09:33:55.267Z,9.50
2022-12-25T09:36:23.328Z,9.60
2022-12-25T09:38:50.721Z,9.70
2022-12-25T09:41:20.302Z,9.80
2022-12-25T09:43:54.539Z,9.80
2022-12-25T09:46:30.207Z,9.90
2022-12-25T09:49:18.601Z,9.90
2022-12-25T09:51:48.572Z,9.90
2022-12-25T09:54:44.743Z,10.00
2022-12-25T09:57:13.465Z,10.00
2022-12-25T09:59:42.041Z,10.10
2022-12-25T10:02:36.626Z,10.00
2022-12-25T10:05:38.780Z,10.10
2022-12-25T10:08:23.678Z,10.20
2022-12-25T10:11:10.569Z,10.30
2022-12-25T10:14:08.882Z,10.50
2022-12-25T10:17:13.030Z,10.50
2022-12-25T10:20:01.600Z,10.60
2022-12-25T10:22:57.111Z,10.60
2022-12-25T10:25:25.277Z,10.60
2022-12-25T10:28:12.251Z,10.60
2022-12-25T10:30:42.639Z,10.70
2022-12-25T10:33:16.931Z,10.80
2022-12-25T10:35:44.464Z,10.90
2022-12-25T10:38:17.100Z,11.10
2022-12-25T10:41:22.005Z,11.20
2022-12-25T10:43:55.718Z,11.30
2022-12-25T10:46:26.012Z,11.30
2022-12-25T10:48:58.801Z,11.40
2022-12-25T10:51:35.794Z,11.40
2022-12-25T10:54:04.723Z,11.50
2022-12-25T10:56:31.379Z,11.70
2022-12-25T10:59:10.440Z,11.70
2022-12-25T11:01:37.425Z,11.90
2022-12-25T11:04:04.285Z,12.10
2022-12-25T11:06:32.572Z,12.00
2022-12-25T11:09:02.062Z,12.10
2022-12-25T11:11:30.350Z,12.40
2022-12-25T11:14:00.853Z,12.50
2022-12-25T11:16:32.189Z,12.70
2022-12-25T11:18:59.989Z,12.60
2022-12-25T11:21:29.723Z,12.80
2022-12-25T11:24:17.728Z,13.00
2022-12-25T11:27:09.166Z,13.20
2022-12-25T11:29:41.698Z,13.40
2022-12-25T11:32:35.054Z,13.60
2022-12-25T11:35:02.477Z,13.20
2022-12-25T11:37:32.223Z,13.20
2022-12-25T11:39:59.215Z,13.10
2022-12-25T11:42:33.119Z,13.10
2022-12-25T11:45:11.313Z,12.90
2022-12-25T11:47:43.391Z,12.90
2022-12-25T11:50:43.450Z,13.00
2022-12-25T11:53:31.750Z,13.00
2022-12-25T11:56:07.419Z,13.00
2022-12-25T11:58:55.387Z,13.10
2022-12-25T12:01:44.610Z,13.10
2022-12-25T12:04:17.665Z,13.10
2022-12-25T12:07:00.043Z,13.10
2022-12-25T12:09:42.276Z,13.10
2022-12-25T12:12:20.473Z,13.00
2022-12-25T12:14:58.419Z,13.10
2022-12-25T12:17:25.135Z,13.10
2022-12-25T12:19:52.576Z,12.90
2022-12-25T12:22:23.501Z,12.80
2022-12-25T12:25:01.329Z,12.80
2022-12-25T12:27:34.833Z,13.00
2022-12-25T12:30:02.186Z,13.00
2022-12-25T12:32:35.166Z,13.00
2022-12-25T12:35:23.905Z,13.30
2022-12-25T12:37:58.215Z,13.30
2022-12-25T12:40:37.769Z,13.40
2022-12-25T12:43:06.195Z,13.50
2022-12-25T12:45:36.452Z,13.40
2022-12-25T12:48:14.487Z,13.20
2022-12-25T12:50:42.048Z,13.00
2022-12-25T12:53:24.024Z,13.00
2022-12-25T12:55:51.941Z,12.90
2022-12-25T12:58:30.873Z,12.70
2022-12-25T13:01:19.353Z,12.50
2022-12-25T13:04:04.269Z,12.50
2022-12-25T13:06:47.546Z,12.50
2022-12-25T13:09:29.257Z,12.60
2022-12-25T13:11:56.218Z,12.70
2022-12-25T13:14:24.252Z,12.70
2022-12-25T13:16:53.995Z,12.80
2022-12-25T13:19:23.085Z,12.80
2022-12-25T13:22:01.467Z,12.70
2022-12-25T13:24:35.768Z,12.60
2022-12-25T13:27:23.228Z,12.50
2022-12-25T13:29:49.972Z,12.60
2022-12-25T13:32:25.071Z,12.60
2022-12-25T13:34:53.125Z,12.60
2022-12-25T13:37:23.315Z,12.50
2022-12-25T13:39:58.631Z,12.50
2022-12-25T13:42:31.498Z,12.40
2022-12-25T13:45:02.173Z,12.40
2022-12-25T13:47:33.265Z,12.30
2022-12-25T13:50:12.935Z,12.30
2022-12-25T13:52:39.905Z,12.30
2022-12-25T13:55:24.770Z,12.30
2022-12-25T13:57:59.766Z,12.30
2022-12-25T14:00:55.498Z,12.20
2022-12-25T14:03:23.754Z,12.10
2022-12-25T14:06:21.394Z,12.10
2022-12-25T14:08:48.802Z,12.10
2022-12-25T14:11:17.974Z,12.10
2022-12-25T14:13:47.269Z,12.10
2022-12-25T14:16:17.978Z,12.10
2022-12-25T14:18:56.881Z,12.10
2022-12-25T14:21:34.895Z,12.00
2022-12-25T14:24:01.887Z,11.90
2022-12-25T14:26:31.671Z,11.90
2022-12-25T14:29:17.198Z,11.80
2022-12-25T14:31:46.841Z,11.80
2022-12-25T14:34:21.728Z,11.70
2022-12-25T14:36:49.324Z,11.60
2022-12-25T14:39:37.299Z,11.50
2022-12-25T14:42:22.012Z,11.30
2022-12-25T14:45:27.539Z,11.20
2022-12-25T14:47:59.747Z,11.10
2022-12-25T14:50:31.401Z,10.90
2022-12-25T14:52:59.528Z,10.90
2022-12-25T14:55:28.571Z,10.80
2022-12-25T14:58:05.253Z,10.80
2022-12-25T15:00:37.727Z,10.70
2022-12-25T15:03:20.756Z,10.60
2022-12-25T15:05:58.916Z,10.50
2022-12-25T15:08:26.058Z,10.30
2022-12-25T15:11:00.924Z,10.20
2022-12-25T15:13:29.034Z,10.10
2022-12-25T15:16:06.070Z,10.00
2022-12-25T15:18:44.348Z,9.90
2022-12-25T15:21:23.030Z,9.80
2022-12-25T15:23:49.725Z,9.70
2022-12-25T15:26:16.775Z,9.60
2022-12-25T15:28:43.521Z,9.50
2022-12-25T15:31:25.517Z,9.50
2022-12-25T15:33:53.883Z,9.40
2022-12-25T15:36:20.905Z,9.30
2022-12-25T15:38:48.013Z,9.30
2022-12-25T15:41:41.563Z,9.20
2022-12-25T15:44:08.345Z,9.20
2022-12-25T15:46:35.145Z,9.10
2022-12-25T15:49:02.049Z,9.10
2022-12-25T15:51:28.766Z,9.00
2022-12-25T15:53:55.508Z,8.90
2022-12-25T15:56:23.315Z,8.80
2022-12-25T15:58:50.085Z,8.80
2022-12-25T16:01:18.653Z,8.70
2022-12-25T16:03:46.237Z,8.60
2022-12-25T16:06:15.028Z,8.50
2022-12-25T16:08:43.249Z,8.50
2022-12-25T16:11:10.991Z,8.40
2022-12-25T16:13:37.994Z,8.30
2022-12-25T16:16:06.765Z,8.30
2022-12-25T16:18:33.493Z,8.20
2022-12-25T16:21:00.273Z,8.30
2022-12-25T16:23:26.956Z,8.20
2022-12-25T16:25:53.639Z,8.20
2022-12-25T16:28:20.282Z,8.20
2022-12-25T16:30:47.028Z,8.20
2022-12-25T16:33:13.902Z,8.30
2022-12-25T16:35:40.580Z,8.20
2022-12-25T16:38:07.564Z,8.20
2022-12-25T16:40:34.365Z,8.20
2022-12-25T16:43:01.093Z,8.10
2022-12-25T16:45:27.829Z,8.10
2022-12-25T16:47:56.554Z,8.10
2022-12-25T16:50:23.848Z,8.10
2022-12-25T16:52:50.544Z,8.00
2022-12-25T16:55:17.290Z,8.00
2022-12-25T16:57:47.624Z,7.90
2022-12-25T17:00:14.847Z,7.90
2022-12-25T17:02:41.632Z,7.90
2022-12-25T17:05:08.819Z,7.80
2022-12-25T17:07:37.077Z,7.80
2022-12-25T17:10:06.270Z,7.70
2022-12-25T17:12:34.147Z,7.70
2022-12-25T17:15:00.846Z,7.60
2022-12-25T17:17:27.576Z,7.60
2022-12-25T17:19:54.204Z,7.60
2022-12-25T17:22:21.139Z,7.50
2022-12-25T17:24:47.864Z,7.50
2022-12-25T17:27:14.523Z,7.50
2022-12-25T17:29:41.265Z,7.50
2022-12-25T17:32:08.781Z,7.50
2022-12-25T17:34:35.696Z,7.40
2022-12-25T17:37:02.451Z,7.40
2022-12-25T17:39:29.157Z,7.30
2022-12-25T17:41:56.055Z,7.30
2022-12-25T17:44:22.880Z,7.20
2022-12-25T17:46:50.531Z,7.10
2022-12-25T17:49:20.252Z,7.10
2022-12-25T17:51:47.343Z,7.10
2022-12-25T17:54:14.165Z,7.10
2022-12-25T17:56:40.967Z,7.00
2022-12-25T17:59:10.410Z,7.00
2022-12-25T18:01:38.745Z,7.00
2022-12-25T18:04:06.258Z,6.90
2022-12-25T18:06:35.539Z,6.90
2022-12-25T18:09:05.975Z,6.80
2022-12-25T18:11:33.289Z,6.70
2022-12-25T18:14:04.278Z,6.70
2022-12-25T18:16:33.622Z,6.70
2022-12-25T18:19:00.755Z,6.70
2022-12-25T18:21:28.323Z,6.70
2022-12-25T18:23:55.136Z,6.70
2022-12-25T18:26:22.020Z,6.70
2022-12-25T18:28:49.924Z,6.70
2022-12-25T18:31:21.169Z,6.70
2022-12-25T18:33:48.393Z,6.70
2022-12-25T18:36:19.969Z,6.70
2022-12-25T18:38:47.526Z,6.60
2022-12-25T18:41:14.419Z,6.60
2022-12-25T18:43:52.497Z,6.70
2022-12-25T18:46:24.009Z,6.80
2022-12-25T18:48:51.765Z,6.70
2022-12-25T18:51:18.622Z,6.60
2022-12-25T18:53:45.256Z,6.60
2022-12-25T18:56:17.222Z,6.50
2022-12-25T18:58:44.742Z,6.40
2022-12-25T19:01:11.845Z,6.30
2022-12-25T19:03:38.721Z,6.30
2022-12-25T19:06:05.569Z,6.20
2022-12-25T19:08:32.238Z,6.20
2022-12-25T19:10:58.898Z,6.20
2022-12-25T19:13:25.591Z,6.20
2022-12-25T19:15:52.266Z,6.20
2022-12-25T19:18:19.014Z,6.20
2022-12-25T19:20:45.721Z,6.30
2022-12-25T19:23:12.352Z,6.30
2022-12-25T19:25:40.113Z,6.30
2022-12-25T19:28:06.829Z,6.30
2022-12-25T19:30:33.516Z,6.30
2022-12-25T19:33:00.239Z,6.40
2022-12-25T19:35:26.931Z,6.40
2022-12-25T19:37:53.597Z,6.50
2022-12-25T19:40:20.333Z,6.50
2022-12-25T19:42:47.169Z,6.50
2022-12-25T19:45:13.843Z,6.60
2022-12-25T19:47:44.179Z,6.60
2022-12-25T19:50:10.973Z,6.60
2022-12-25T19:52:38.770Z,6.60
2022-12-25T19:55:05.912Z,6.60
2022-12-25T19:57:32.662Z,6.70
2022-12-25T19:59:59.289Z,6.70
2022-12-25T20:02:26.054Z,6.70
2022-12-25T20:04:52.710Z,6.80
2022-12-25T20:07:19.393Z,7.00
2022-12-25T20:09:46.189Z,7.00
2022-12-25T20:12:14.979Z,7.00
2022-12-25T20:14:41.986Z,7.20
2022-12-25T20:17:15.397Z,7.30
2022-12-25T20:19:42.502Z,7.30
2022-12-25T20:22:09.126Z,7.50
2022-12-25T20:24:35.838Z,7.70
2022-12-25T20:27:03.014Z,7.80
2022-12-25T20:29:29.717Z,7.90
2022-12-25T20:31:56.420Z,8.00
2022-12-25T20:34:23.241Z,8.00
2022-12-25T20:36:50.202Z,8.10
2022-12-25T20:39:17.143Z,8.30
2022-12-25T20:41:43.802Z,8.30
2022-12-25T20:44:10.585Z,8.40
2022-12-25T20:46:37.687Z,8.50
2022-12-25T20:49:05.025Z,8.50
2022-12-25T20:51:31.781Z,8.60
2022-12-25T20:53:58.418Z,8.60
2022-12-25T20:56:26.861Z,8.60
2022-12-25T20:58:58.922Z,8.60
2022-12-25T21:01:27.456Z,8.60
2022-12-25T21:03:54.868Z,8.60
2022-12-25T21:06:22.213Z,8.60
2022-12-25T21:08:49.136Z,8.60
2022-12-25T21:11:17.498Z,8.70
2022-12-25T21:13:45.999Z,8.60
2022-12-25T21:16:19.738Z,8.50
2022-12-25T21:18:47.542Z,8.40
2022-12-25T21:21:15.087Z,8.30
2022-12-25T21:23:42.075Z,8.30
2022-12-25T21:26:22.407Z,8.20
2022-12-25T21:28:51.653Z,8.10
2022-12-25T21:31:19.719Z,8.00
2022-12-25T21:33:53.291Z,7.90
2022-12-25T21:36:30.605Z,7.90
2022-12-25T21:39:03.732Z,7.80
2022-12-25T21:41:31.872Z,7.80
2022-12-25T21:43:59.033Z,7.70
2022-12-25T21:46:26.363Z,7.80
2022-12-25T21:48:54.377Z,7.80
2022-12-25T21:51:42.566Z,7.80
2022-12-25T21:54:10.201Z,7.80
2022-12-25T21:56:44.031Z,7.80
2022-12-25T21:59:18.423Z,7.70
2022-12-25T22:01:46.148Z,7.70
2022-12-25T22:04:14.478Z,7.80
2022-12-25T22:07:01.568Z,7.70
2022-12-25T22:09:28.269Z,7.80
2022-12-25T22:12:13.474Z,7.80
2022-12-25T22:14:56.293Z,7.70
2022-12-25T22:17:43.660Z,7.60
2022-12-25T22:20:17.636Z,7.60
2022-12-25T22:22:44.999Z,7.60
2022-12-25T22:25:12.551Z,7.50
2022-12-25T22:27:40.750Z,7.50
2022-12-25T22:30:13.094Z,7.40
2022-12-25T22:32:40.195Z,7.40
2022-12-25T22:35:07.531Z,7.50
2022-12-25T22:37:35.835Z,7.40
2022-12-25T22:40:03.997Z,7.30
2022-12-25T22:42:30.988Z,7.30
2022-12-25T22:44:58.050Z,7.20
2022-12-25T22:47:24.896Z,7.20
2022-12-25T22:49:51.582Z,7.10
2022-12-25T22:52:18.437Z,7.10
2022-12-25T22:54:45.094Z,7.00
2022-12-25T22:57:11.765Z,6.90
2022-12-25T22:59:38.434Z,6.90
2022-12-25T23:02:05.169Z,6.90
2022-12-25T23:04:32.130Z,6.90
2022-12-25T23:06:58.816Z,6.90
2022-12-25T23:09:27.971Z,6.90
2022-12-25T23:11:58.906Z,6.90
2022-12-25T23:14:39.316Z,7.00
2022-12-25T23:17:30.172Z,7.00
2022-12-25T23:20:17.713Z,7.10
2022-12-25T23:23:03.787Z,7.20
2022-12-25T23:25:49.366Z,7.20
2022-12-25T23:28:36.008Z,7.20
2022-12-25T23:31:02.739Z,7.30
2022-12-25T23:33:29.466Z,7.30
2022-12-25T23:35:56.135Z,7.30
2022-12-25T23:38:22.787Z,7.20
2022-12-25T23:40:49.443Z,7.20
2022-12-25T23:43:16.077Z,7.20
2022-12-25T23:45:42.781Z,7.10
2022-12-25T23:48:09.451Z,7.10
2022-12-25T23:50:36.128Z,7.10
2022-12-25T23:53:02.758Z,7.20
2022-12-25T23:55:29.415Z,7.20
2022-12-25T23:57:56.279Z,7.30
